createdAt,value
2022-08-12T00:00:09.842Z,99.90
2022-08-12T00:02:55.848Z,99.90
2022-08-12T00:05:58.281Z,99.90
2022-08-12T00:08:51.720Z,99.90
2022-08-12T00:11:39.266Z,99.90
2022-08-12T00:14:25.374Z,99.90
2022-08-12T00:17:12.088Z,99.90
2022-08-12T00:19:58.182Z,99.90
2022-08-12T00:22:46.379Z,99.90
2022-08-12T00:26:21.630Z,99.90
2022-08-12T00:29:05.611Z,99.90
2022-08-12T00:31:51.712Z,99.90
2022-08-12T00:34:38.335Z,99.90
2022-08-12T00:37:25.267Z,99.90
2022-08-12T00:40:14.724Z,99.90
2022-08-12T00:42:43.032Z,99.90
2022-08-12T00:45:10.957Z,99.90
2022-08-12T00:47:39.569Z,99.90
2022-08-12T00:50:09.262Z,99.90
2022-08-12T00:52:36.859Z,99.90
2022-08-12T00:55:06.100Z,99.90
2022-08-12T00:57:38.842Z,99.90
2022-08-12T01:00:08.520Z,99.90
2022-08-12T01:02:40.363Z,99.90
2022-08-12T01:05:29.639Z,99.90
2022-08-12T01:08:17.311Z,99.90
2022-08-12T01:11:05.295Z,99.90
2022-08-12T01:13:38.975Z,99.90
2022-08-12T01:16:08.431Z,99.90
2022-08-12T01:18:38.170Z,99.90
2022-08-12T01:21:27.437Z,99.90
2022-08-12T01:24:30.935Z,99.90
2022-08-12T01:27:01.409Z,99.90
2022-08-12T01:29:35.066Z,99.90
2022-08-12T01:32:10.162Z,99.90
2022-08-12T01:34:41.221Z,99.90
2022-08-12T01:37:10.130Z,99.90
2022-08-12T01:40:31.518Z,99.90
2022-08-12T01:42:48.137Z,99.90
2022-08-12T01:45:22.984Z,99.90
2022-08-12T01:48:05.983Z,99.90
2022-08-12T01:50:36.924Z,99.90
2022-08-12T01:53:06.469Z,99.90
2022-08-12T01:55:38.340Z,99.90
2022-08-12T01:58:29.066Z,99.90
2022-08-12T02:01:11.593Z,99.90
2022-08-12T02:04:05.502Z,99.90
2022-08-12T02:07:12.215Z,99.90
2022-08-12T02:10:50.923Z,99.90
2022-08-12T02:13:48.878Z,99.90
2022-08-12T02:16:46.411Z,99.90
2022-08-12T02:19:32.372Z,99.90
2022-08-12T02:22:29.988Z,99.90
2022-08-12T02:25:09.694Z,99.90
2022-08-12T02:27:45.649Z,99.90
2022-08-12T02:30:17.251Z,99.90
2022-08-12T02:32:45.960Z,99.90
2022-08-12T02:35:23.051Z,99.90
2022-08-12T02:37:53.082Z,99.90
2022-08-12T02:40:22.166Z,99.90
2022-08-12T02:43:04.422Z,99.90
2022-08-12T02:46:10.484Z,99.90
2022-08-12T02:48:51.813Z,99.90
2022-08-12T02:51:23.882Z,99.90
2022-08-12T02:54:02.875Z,99.90
2022-08-12T02:56:34.631Z,99.90
2022-08-12T02:59:02.571Z,99.90
2022-08-12T03:01:35.651Z,99.90
2022-08-12T03:04:20.574Z,99.90
2022-08-12T03:06:58.273Z,99.90
2022-08-12T03:09:28.733Z,99.90
2022-08-12T03:12:09.868Z,99.90
2022-08-12T03:14:44.759Z,99.90
2022-08-12T03:17:22.218Z,99.90
2022-08-12T03:20:08.639Z,99.90
2022-08-12T03:22:43.635Z,99.90
2022-08-12T03:25:34.573Z,99.90
2022-08-12T03:28:03.937Z,99.90
2022-08-12T03:30:32.985Z,99.90
2022-08-12T03:33:02.695Z,99.90
2022-08-12T03:35:40.029Z,99.90
2022-08-12T03:38:12.400Z,99.90
2022-08-12T03:41:27.123Z,99.90
2022-08-12T03:44:48.586Z,99.90
2022-08-12T03:47:52.517Z,99.90
2022-08-12T03:50:39.824Z,99.90
2022-08-12T03:53:27.882Z,99.90
2022-08-12T03:56:14.652Z,99.90
2022-08-12T03:59:00.548Z,99.90
2022-08-12T04:01:28.214Z,99.90
2022-08-12T04:03:55.983Z,99.90
2022-08-12T04:06:34.814Z,99.90
2022-08-12T04:09:14.898Z,99.90
2022-08-12T04:12:04.542Z,99.90
2022-08-12T04:14:33.333Z,99.90
2022-08-12T04:17:03.359Z,99.90
2022-08-12T04:19:31.724Z,99.90
2022-08-12T04:22:01.840Z,99.90
2022-08-12T04:24:36.322Z,99.90
2022-08-12T04:27:07.333Z,99.90
2022-08-12T04:30:29.373Z,99.90
2022-08-12T04:32:22.987Z,99.90
2022-08-12T04:34:51.764Z,99.90
2022-08-12T04:37:19.597Z,99.90
2022-08-12T04:39:48.326Z,99.90
2022-08-12T04:42:16.259Z,99.90
2022-08-12T04:44:44.508Z,99.90
2022-08-12T04:47:16.598Z,99.90
2022-08-12T04:49:46.441Z,99.90
2022-08-12T04:52:14.536Z,99.90
2022-08-12T04:54:44.093Z,99.90
2022-08-12T04:57:11.835Z,99.90
2022-08-12T04:59:47.562Z,99.90
2022-08-12T05:02:22.138Z,99.90
2022-08-12T05:04:52.232Z,99.90
2022-08-12T05:07:20.870Z,99.90
2022-08-12T05:10:00.670Z,99.90
2022-08-12T05:12:37.905Z,99.90
2022-08-12T05:15:19.582Z,99.90
2022-08-12T05:17:55.948Z,99.90
2022-08-12T05:20:26.121Z,99.90
2022-08-12T05:23:12.949Z,99.90
2022-08-12T05:25:43.370Z,99.90
2022-08-12T05:28:13.153Z,99.90
2022-08-12T05:30:42.739Z,99.90
2022-08-12T05:33:12.457Z,99.90
2022-08-12T05:35:42.883Z,99.90
2022-08-12T05:38:31.686Z,99.90
2022-08-12T05:41:00.416Z,99.90
2022-08-12T05:43:28.840Z,99.90
2022-08-12T05:45:56.809Z,99.90
2022-08-12T05:48:24.568Z,99.90
2022-08-12T05:50:53.187Z,99.90
2022-08-12T05:53:20.815Z,99.90
2022-08-12T05:55:52.736Z,99.90
2022-08-12T05:58:21.295Z,99.90
2022-08-12T06:00:48.832Z,99.90
2022-08-12T06:03:19.476Z,99.90
2022-08-12T06:05:55.243Z,99.90
2022-08-12T06:08:24.882Z,99.90
2022-08-12T06:10:52.965Z,99.90
2022-08-12T06:13:28.388Z,99.90
2022-08-12T06:16:09.903Z,99.90
2022-08-12T06:18:40.117Z,99.90
2022-08-12T06:21:13.023Z,99.90
2022-08-12T06:23:42.874Z,99.90
2022-08-12T06:26:12.968Z,99.90
2022-08-12T06:28:44.601Z,99.90
2022-08-12T06:31:26.950Z,99.90
2022-08-12T06:34:52.937Z,99.90
2022-08-12T06:36:44.356Z,99.90
2022-08-12T06:39:15.065Z,99.90
2022-08-12T06:42:28.547Z,99.90
2022-08-12T06:44:50.466Z,99.90
2022-08-12T06:47:19.525Z,99.90
2022-08-12T06:49:48.625Z,99.90
2022-08-12T06:52:17.349Z,99.90
2022-08-12T06:54:45.775Z,99.90
2022-08-12T06:58:05.937Z,99.90
2022-08-12T07:00:00.875Z,99.90
2022-08-12T07:02:29.978Z,99.90
2022-08-12T07:05:00.214Z,99.90
2022-08-12T07:07:27.832Z,99.90
2022-08-12T07:10:05.154Z,99.90
2022-08-12T07:12:35.227Z,99.90
2022-08-12T07:15:02.884Z,99.90
2022-08-12T07:17:37.830Z,99.90
2022-08-12T07:20:29.462Z,99.60
2022-08-12T07:22:59.278Z,98.90
2022-08-12T07:25:40.497Z,98.10
2022-08-12T07:28:23.420Z,97.50
2022-08-12T07:30:52.847Z,96.70
2022-08-12T07:33:23.453Z,96.00
2022-08-12T07:35:54.009Z,95.20
2022-08-12T07:38:33.694Z,94.50
2022-08-12T07:41:02.223Z,93.70
2022-08-12T07:43:31.457Z,93.20
2022-08-12T07:46:00.729Z,92.20
2022-08-12T07:48:28.344Z,91.00
2022-08-12T07:50:55.917Z,90.90
2022-08-12T07:53:23.423Z,90.90
2022-08-12T07:55:51.046Z,90.20
2022-08-12T07:58:18.611Z,88.70
2022-08-12T08:00:46.144Z,87.60
2022-08-12T08:03:13.630Z,87.20
2022-08-12T08:05:46.506Z,86.30
2022-08-12T08:08:20.574Z,85.00
2022-08-12T08:10:50.149Z,83.50
2022-08-12T08:13:18.451Z,82.50
2022-08-12T08:16:02.475Z,82.10
2022-08-12T08:18:31.449Z,81.40
2022-08-12T08:20:59.115Z,79.90
2022-08-12T08:23:46.961Z,79.40
2022-08-12T08:26:24.903Z,78.70
2022-08-12T08:28:53.094Z,77.40
2022-08-12T08:31:21.639Z,76.20
2022-08-12T08:34:09.214Z,74.30
2022-08-12T08:36:37.609Z,72.60
2022-08-12T08:39:07.718Z,71.80
2022-08-12T08:42:16.029Z,70.40
2022-08-12T08:44:42.916Z,69.80
2022-08-12T08:47:13.044Z,68.80
2022-08-12T08:49:40.904Z,67.50
2022-08-12T08:52:11.994Z,66.60
2022-08-12T08:54:40.694Z,65.80
2022-08-12T08:57:08.704Z,65.00
2022-08-12T08:59:36.621Z,63.70
2022-08-12T09:02:04.430Z,62.60
2022-08-12T09:05:11.778Z,61.40
2022-08-12T09:07:43.776Z,60.20
2022-08-12T09:16:07.080Z,57.30
2022-08-12T09:18:35.839Z,56.30
2022-08-12T09:21:06.408Z,56.50
2022-08-12T09:24:00.274Z,56.00
2022-08-12T09:26:28.719Z,55.50
2022-08-12T09:29:00.770Z,54.40
2022-08-12T09:32:03.264Z,52.90
2022-08-12T09:34:31.065Z,52.40
2022-08-12T09:37:19.602Z,51.60
2022-08-12T09:40:05.030Z,51.10
2022-08-12T09:43:16.093Z,51.30
2022-08-12T09:46:06.087Z,49.90
2022-08-12T09:48:40.102Z,48.40
2022-08-12T09:51:21.585Z,48.30
2022-08-12T09:54:08.975Z,48.20
2022-08-12T09:56:58.968Z,47.80
2022-08-12T10:00:15.483Z,46.70
2022-08-12T10:02:45.732Z,46.00
2022-08-12T10:05:05.265Z,45.80
2022-08-12T10:07:39.652Z,44.30
2022-08-12T10:10:23.995Z,43.30
2022-08-12T10:13:35.131Z,42.50
2022-08-12T10:16:04.704Z,42.10
2022-08-12T10:18:37.367Z,41.00
2022-08-12T10:21:36.493Z,40.30
2022-08-12T10:24:10.004Z,38.60
2022-08-12T10:26:58.308Z,37.70
2022-08-12T10:30:37.672Z,36.80
2022-08-12T10:32:43.974Z,35.80
2022-08-12T10:35:15.462Z,35.20
2022-08-12T10:38:36.565Z,35.10
2022-08-12T10:40:37.637Z,34.00
2022-08-12T10:43:23.927Z,33.90
2022-08-12T10:45:58.255Z,33.10
2022-08-12T10:48:33.867Z,32.10
2022-08-12T10:52:02.679Z,31.70
2022-08-12T10:54:00.275Z,31.40
2022-08-12T10:56:34.459Z,31.10
2022-08-12T10:59:11.123Z,30.30
2022-08-12T11:04:16.806Z,29.60
2022-08-12T11:04:49.131Z,28.90
2022-08-12T11:08:36.143Z,28.80
2022-08-12T11:10:05.719Z,28.60
2022-08-12T11:12:55.745Z,28.30
2022-08-12T11:15:33.295Z,28.30
2022-08-12T11:18:11.586Z,27.80
2022-08-12T11:20:40.321Z,27.50
2022-08-12T11:23:24.954Z,27.80
2022-08-12T11:26:04.980Z,27.10
2022-08-12T11:28:37.646Z,27.00
2022-08-12T11:31:09.847Z,26.90
2022-08-12T11:34:05.100Z,26.90
2022-08-12T11:36:29.307Z,26.80
2022-08-12T11:38:58.407Z,26.50
2022-08-12T11:41:31.497Z,26.50
2022-08-12T11:44:34.996Z,26.30
2022-08-12T11:46:54.039Z,26.60
2022-08-12T11:49:30.540Z,26.20
2022-08-12T11:52:01.704Z,25.70
2022-08-12T11:54:30.265Z,25.40
2022-08-12T11:57:02.332Z,25.30
2022-08-12T12:02:21.301Z,25.30
2022-08-12T12:04:52.645Z,25.50
2022-08-12T12:07:22.791Z,25.10
2022-08-12T12:10:13.275Z,24.70
2022-08-12T12:12:50.141Z,25.00
2022-08-12T12:15:25.188Z,25.50
2022-08-12T12:18:06.762Z,24.90
2022-08-12T12:20:35.017Z,24.80
2022-08-12T12:23:03.989Z,24.60
2022-08-12T12:25:59.362Z,23.90
2022-08-12T12:28:35.299Z,23.70
2022-08-12T12:31:14.516Z,24.30
2022-08-12T12:33:58.369Z,23.70
2022-08-12T12:36:30.207Z,23.50
2022-08-12T12:39:00.385Z,23.30
2022-08-12T12:42:42.551Z,23.50
2022-08-12T12:44:26.117Z,23.30
2022-08-12T12:47:29.222Z,23.10
2022-08-12T12:49:53.571Z,22.50
2022-08-12T12:52:21.519Z,22.50
2022-08-12T12:54:58.715Z,23.00
2022-08-12T12:57:58.937Z,23.00
2022-08-12T13:00:15.327Z,22.90
2022-08-12T13:02:48.615Z,22.60
2022-08-12T13:05:27.608Z,23.00
2022-08-12T13:08:01.747Z,22.30
2022-08-12T13:10:36.818Z,22.20
2022-08-12T13:14:10.621Z,22.20
2022-08-12T13:15:59.210Z,22.10
2022-08-12T13:18:36.427Z,22.10
2022-08-12T13:21:06.323Z,22.00
2022-08-12T13:23:47.984Z,22.30
2022-08-12T13:26:18.079Z,22.90
2022-08-12T13:28:53.114Z,22.80
2022-08-12T13:31:24.870Z,22.80
2022-08-12T13:34:32.317Z,22.90
2022-08-12T13:36:42.220Z,22.70
2022-08-12T13:39:10.242Z,22.90
2022-08-12T13:41:39.067Z,23.00
2022-08-12T13:44:10.715Z,23.30
2022-08-12T13:46:40.896Z,23.40
2022-08-12T13:49:17.614Z,23.40
2022-08-12T13:52:01.518Z,23.40
2022-08-12T13:54:29.727Z,23.50
2022-08-12T13:56:57.311Z,23.30
2022-08-12T13:59:26.721Z,23.30
2022-08-12T14:01:56.710Z,23.10
2022-08-12T14:04:24.883Z,22.90
2022-08-12T14:06:53.994Z,22.90
2022-08-12T14:09:21.577Z,22.80
2022-08-12T14:11:58.833Z,22.70
2022-08-12T14:14:31.539Z,22.60
2022-08-12T14:17:05.647Z,22.60
2022-08-12T14:19:48.705Z,22.30
2022-08-12T14:22:21.331Z,22.40
2022-08-12T14:24:53.942Z,22.50
2022-08-12T14:28:03.255Z,22.40
2022-08-12T14:30:15.683Z,22.20
2022-08-12T14:32:51.828Z,22.40
2022-08-12T14:35:20.389Z,22.50
2022-08-12T14:37:57.572Z,22.40
2022-08-12T14:40:30.190Z,22.40
2022-08-12T14:43:02.744Z,22.30
2022-08-12T14:45:44.429Z,22.50
2022-08-12T14:48:24.043Z,22.50
2022-08-12T14:51:02.997Z,22.30
2022-08-12T14:59:56.429Z,22.40
2022-08-12T15:02:23.503Z,22.40
2022-08-12T15:04:59.308Z,22.40
2022-08-12T15:07:34.290Z,22.30
2022-08-12T15:10:31.563Z,22.30
2022-08-12T15:13:07.220Z,22.20
2022-08-12T15:15:43.812Z,22.40
2022-08-12T15:18:21.177Z,22.40
2022-08-12T15:20:54.654Z,22.30
2022-08-12T15:23:23.879Z,22.20
2022-08-12T15:26:02.977Z,22.10
2022-08-12T15:28:33.702Z,22.00
2022-08-12T15:31:03.158Z,22.10
2022-08-12T15:33:50.116Z,22.20
2022-08-12T15:36:50.263Z,22.40
2022-08-12T15:39:17.023Z,22.10
2022-08-12T15:41:50.124Z,22.00
2022-08-12T15:44:38.022Z,22.10
2022-08-12T15:47:07.836Z,22.40
2022-08-12T15:49:54.963Z,22.70
2022-08-12T15:52:27.511Z,22.70
2022-08-12T15:54:58.891Z,22.50
2022-08-12T15:57:33.544Z,23.00
2022-08-12T16:00:09.312Z,23.00
2022-08-12T16:02:51.599Z,23.30
2022-08-12T16:06:12.339Z,23.30
2022-08-12T16:08:17.164Z,23.30
2022-08-12T16:10:47.879Z,23.40
2022-08-12T16:13:32.621Z,23.50
2022-08-12T16:16:22.473Z,23.50
2022-08-12T16:19:00.826Z,23.40
2022-08-12T16:21:51.556Z,23.50
2022-08-12T16:24:18.783Z,23.60
2022-08-12T16:26:51.490Z,23.80
2022-08-12T16:29:52.402Z,24.00
2022-08-12T16:32:24.120Z,24.30
2022-08-12T16:34:54.645Z,24.40
2022-08-12T16:37:32.348Z,24.60
2022-08-12T16:40:06.215Z,25.00
2022-08-12T16:42:53.235Z,25.30
2022-08-12T16:45:32.389Z,25.80
2022-08-12T16:48:33.670Z,26.30
2022-08-12T16:51:12.675Z,26.70
2022-08-12T16:53:50.865Z,27.00
2022-08-12T16:56:19.083Z,27.00
2022-08-12T16:58:47.380Z,27.00
2022-08-12T17:01:16.599Z,27.30
2022-08-12T17:04:08.499Z,27.30
2022-08-12T17:06:43.261Z,27.90
2022-08-12T17:09:17.337Z,28.00
2022-08-12T17:11:50.321Z,28.30
2022-08-12T17:14:23.181Z,28.60
2022-08-12T17:16:54.617Z,28.70
2022-08-12T17:20:29.089Z,29.00
2022-08-12T17:22:15.063Z,29.20
2022-08-12T17:24:55.401Z,29.30
2022-08-12T17:27:26.868Z,29.40
2022-08-12T17:30:02.839Z,29.30
2022-08-12T17:32:35.049Z,29.60
2022-08-12T17:35:21.221Z,29.90
2022-08-12T17:37:50.782Z,30.10
2022-08-12T17:40:35.839Z,30.20
2022-08-12T17:43:56.950Z,30.70
2022-08-12T17:45:59.014Z,31.30
2022-08-12T17:48:35.060Z,31.70
2022-08-12T17:51:15.580Z,31.90
2022-08-12T17:54:06.199Z,31.50
2022-08-12T17:56:37.332Z,32.00
2022-08-12T17:59:12.605Z,32.40
2022-08-12T18:01:46.420Z,32.60
2022-08-12T18:04:23.382Z,32.70
2022-08-12T18:07:03.037Z,32.90
2022-08-12T18:09:36.463Z,33.10
2022-08-12T18:12:47.136Z,33.40
2022-08-12T18:15:26.773Z,33.90
2022-08-12T18:18:06.165Z,34.20
2022-08-12T18:20:46.229Z,34.20
2022-08-12T18:23:13.891Z,34.50
2022-08-12T18:26:15.852Z,34.90
2022-08-12T18:28:45.080Z,34.70
2022-08-12T18:31:18.334Z,34.90
2022-08-12T18:33:46.595Z,35.30
2022-08-12T18:36:14.723Z,35.60
2022-08-12T18:38:56.148Z,36.60
2022-08-12T18:41:33.467Z,36.30
2022-08-12T18:44:09.417Z,36.20
2022-08-12T18:46:54.219Z,37.00
2022-08-12T18:49:37.899Z,37.40
2022-08-12T18:52:08.643Z,37.60
2022-08-12T18:54:54.907Z,37.80
2022-08-12T18:58:06.825Z,38.00
2022-08-12T19:00:22.249Z,38.20
2022-08-12T19:02:54.476Z,38.40
2022-08-12T19:05:25.461Z,38.50
2022-08-12T19:08:14.103Z,38.80
2022-08-12T19:10:50.076Z,39.00
2022-08-12T19:13:38.530Z,39.10
2022-08-12T19:16:12.415Z,39.30
2022-08-12T19:18:45.153Z,39.50
2022-08-12T19:21:16.838Z,39.70
2022-08-12T19:24:08.916Z,39.90
2022-08-12T19:26:37.608Z,40.00
2022-08-12T19:29:07.734Z,40.30
2022-08-12T19:31:45.335Z,40.50
2022-08-12T19:35:06.635Z,40.50
2022-08-12T19:37:27.167Z,40.90
2022-08-12T19:40:09.286Z,41.10
2022-08-12T19:42:53.218Z,41.50
2022-08-12T19:45:22.770Z,41.80
2022-08-12T19:47:50.452Z,42.00
2022-08-12T19:50:20.220Z,42.20
2022-08-12T19:52:52.641Z,42.50
2022-08-12T19:55:24.194Z,42.80
2022-08-12T19:58:01.518Z,43.00
2022-08-12T20:00:31.780Z,43.30
2022-08-12T20:03:00.388Z,43.50
2022-08-12T20:06:05.881Z,43.90
2022-08-12T20:08:26.430Z,44.10
2022-08-12T20:12:14.378Z,44.40
2022-08-12T20:14:01.142Z,44.80
2022-08-12T20:16:52.982Z,45.10
2022-08-12T20:19:18.379Z,45.30
2022-08-12T20:21:46.041Z,45.40
2022-08-12T20:24:14.464Z,45.80
2022-08-12T20:26:43.278Z,46.00
2022-08-12T20:29:13.190Z,46.20
2022-08-12T20:31:41.479Z,46.40
2022-08-12T20:34:12.398Z,46.70
2022-08-12T20:36:44.776Z,46.90
2022-08-12T20:39:17.898Z,47.30
2022-08-12T20:42:07.088Z,47.50
2022-08-12T20:44:40.281Z,47.80
2022-08-12T20:47:18.017Z,47.90
2022-08-12T20:49:54.782Z,48.10
2022-08-12T20:52:25.491Z,48.40
2022-08-12T20:54:58.084Z,48.60
2022-08-12T20:57:38.177Z,48.80
2022-08-12T21:00:28.127Z,49.00
2022-08-12T21:03:16.162Z,49.20
2022-08-12T21:06:10.322Z,49.40
2022-08-12T21:08:43.750Z,49.70
2022-08-12T21:11:11.615Z,49.80
2022-08-12T21:13:41.923Z,50.00
2022-08-12T21:16:10.482Z,50.20
2022-08-12T21:18:38.360Z,50.30
2022-08-12T21:21:06.736Z,50.60
2022-08-12T21:23:51.320Z,50.70
2022-08-12T21:26:24.900Z,51.00
2022-08-12T21:29:01.407Z,51.20
2022-08-12T21:32:36.762Z,51.40
2022-08-12T21:34:22.125Z,51.60
2022-08-12T21:36:53.984Z,51.90
2022-08-12T21:39:35.240Z,52.10
2022-08-12T21:42:06.866Z,52.30
2022-08-12T21:45:46.784Z,52.50
2022-08-12T21:47:23.457Z,52.50
2022-08-12T21:50:04.140Z,52.60
2022-08-12T21:52:36.816Z,52.90
2022-08-12T21:55:08.553Z,53.20
2022-08-12T21:57:53.360Z,53.40
2022-08-12T22:00:31.782Z,53.50
2022-08-12T22:04:03.566Z,53.50
2022-08-12T22:06:31.529Z,53.50
2022-08-12T22:09:15.340Z,53.50
2022-08-12T22:11:49.300Z,53.50
2022-08-12T22:14:24.902Z,53.60
2022-08-12T22:16:55.728Z,54.10
2022-08-12T22:19:23.680Z,53.30
2022-08-12T22:21:54.732Z,53.10
2022-08-12T22:24:27.248Z,53.20
2022-08-12T22:27:08.149Z,53.20
2022-08-12T22:30:04.586Z,53.20
2022-08-12T22:32:33.713Z,53.10
2022-08-12T22:35:24.044Z,53.20
2022-08-12T22:37:53.486Z,53.30
2022-08-12T22:40:23.816Z,53.40
2022-08-12T22:43:15.439Z,53.50
2022-08-12T22:46:01.746Z,53.70
2022-08-12T22:48:30.570Z,53.90
2022-08-12T22:50:59.659Z,54.10
2022-08-12T22:53:36.091Z,54.30
2022-08-12T22:56:08.951Z,54.40
2022-08-12T22:58:41.964Z,54.80
2022-08-12T23:01:11.235Z,55.10
2022-08-12T23:03:47.800Z,55.30
2022-08-12T23:06:23.865Z,55.50
2022-08-12T23:08:53.891Z,55.90
2022-08-12T23:11:23.972Z,56.20
2022-08-12T23:13:57.105Z,56.50
2022-08-12T23:16:31.838Z,56.80
2022-08-12T23:19:22.942Z,57.00
2022-08-12T23:22:05.005Z,57.20
2022-08-12T23:24:56.584Z,57.30
2022-08-12T23:27:52.205Z,57.50
2022-08-12T23:30:31.278Z,57.80
2022-08-12T23:33:01.386Z,58.00
2022-08-12T23:35:53.852Z,58.20
2022-08-12T23:38:31.031Z,58.40
2022-08-12T23:41:02.048Z,58.60
2022-08-12T23:43:39.524Z,58.90
2022-08-12T23:46:10.514Z,59.30
2022-08-12T23:48:38.786Z,59.60
2022-08-12T23:51:22.138Z,59.90
2022-08-12T23:54:32.807Z,60.30
2022-08-12T23:57:10.971Z,61.10
2022-08-12T23:59:43.658Z,61.50
